Weather at Shinan Daewoo Hospital Heliport

Public forecast

Using degrees Celsius for public forecast. Weather courtesy of forecast.io.

Closest aviation weather report (METAR) to Shinan Daewoo Hospital Heliport

Report is more than 6 hours old.

Closest report is Mokpo Airport, 22.2 nm (41.1 km) E. Retrieved 2014/01/04 21:00 UTC (8 years ago):

RKJM 042100Z 06002KT 3200 BR NSC M07/M08 Q1023 NOSIG

Closest aviation forecast (TAF) to Shinan Daewoo Hospital Heliport

Closest forecast is Muan International Airport, 27.5 nm (50.8 km) NE. Retrieved 2021-10-23 00:00 UTC (1 hour ago):

TAF RKJB 222300Z 2300/2406 11005KT CAVOK TX19/2305Z TN07/2321Z TX19/2405Z BECMG 2302/2303 35006KT BECMG 2312/2313 11005KT BECMG 2403/2404 35006KT